createdAt,value
2022-12-11T00:02:04.610Z,53.70
2022-12-11T00:04:32.269Z,48.83
2022-12-11T00:06:59.019Z,51.03
2022-12-11T00:09:25.838Z,59.35
2022-12-11T00:11:52.535Z,56.60
2022-12-11T00:14:19.394Z,53.50
2022-12-11T00:16:48.065Z,49.42
2022-12-11T00:19:15.245Z,58.55
2022-12-11T00:21:42.448Z,56.85
2022-12-11T00:24:09.297Z,51.60
2022-12-11T00:29:02.670Z,55.22
2022-12-11T00:31:29.486Z,48.05
2022-12-11T00:33:56.388Z,59.67
2022-12-11T00:36:25.469Z,55.22
2022-12-11T00:38:53.917Z,54.17
2022-12-11T00:41:20.956Z,50.03
2022-12-11T00:43:47.932Z,52.15
2022-12-11T00:46:14.809Z,54.20
2022-12-11T00:48:41.724Z,48.10
2022-12-11T00:53:35.201Z,42.60
2022-12-11T00:56:02.067Z,56.55
2022-12-11T00:58:28.983Z,51.42
2022-12-11T01:00:55.934Z,51.72
2022-12-11T01:03:22.894Z,52.55
2022-12-11T01:05:54.123Z,43.47
2022-12-11T01:08:21.044Z,53.67
2022-12-11T01:10:47.793Z,52.83
2022-12-11T01:13:14.732Z,52.88
2022-12-11T01:15:44.524Z,48.45
2022-12-11T01:18:13.847Z,49.42
2022-12-11T01:20:41.219Z,51.78
2022-12-11T01:23:08.339Z,53.85
2022-12-11T01:25:36.027Z,47.28
2022-12-11T01:28:02.695Z,50.90
2022-12-11T01:30:29.713Z,57.83
2022-12-11T01:32:56.426Z,53.88
2022-12-11T01:35:23.267Z,54.42
2022-12-11T01:37:50.087Z,53.53
2022-12-11T01:40:19.083Z,59.97
2022-12-11T01:42:46.197Z,52.90
2022-12-11T01:45:23.835Z,61.28
2022-12-11T01:47:57.020Z,56.63
2022-12-11T01:50:24.399Z,61.72
2022-12-11T01:52:51.285Z,60.10
2022-12-11T01:55:19.323Z,59.95
2022-12-11T01:57:49.072Z,67.55
2022-12-11T02:00:23.560Z,57.15
2022-12-11T02:02:50.345Z,57.95
2022-12-11T02:05:17.166Z,60.60
2022-12-11T02:07:48.003Z,63.53
2022-12-11T02:10:15.233Z,63.28
2022-12-11T02:12:59.783Z,60.42
2022-12-11T02:15:42.149Z,72.13
2022-12-11T02:18:31.248Z,58.63
2022-12-11T02:21:26.533Z,54.63
2022-12-11T02:24:16.198Z,57.80
2022-12-11T02:26:51.938Z,56.60
2022-12-11T02:29:23.345Z,55.10
2022-12-11T02:32:20.956Z,55.70
2022-12-11T02:34:58.092Z,55.13
2022-12-11T02:37:28.330Z,49.92
2022-12-11T02:39:55.987Z,45.10
2022-12-11T02:42:25.787Z,49.80
2022-12-11T02:44:53.416Z,47.53
2022-12-11T02:47:21.321Z,38.67
2022-12-11T02:49:50.228Z,46.28
2022-12-11T02:52:19.465Z,40.90
2022-12-11T02:54:47.209Z,39.35
2022-12-11T02:57:26.143Z,39.05
2022-12-11T02:59:53.051Z,39.67
2022-12-11T03:02:20.265Z,43.83
2022-12-11T03:04:47.708Z,30.13
2022-12-11T03:07:23.457Z,31.90
2022-12-11T03:09:50.812Z,38.95
2022-12-11T03:12:21.644Z,39.00
2022-12-11T03:14:49.076Z,37.75
2022-12-11T03:17:20.063Z,39.53
2022-12-11T03:19:53.792Z,32.92
2022-12-11T03:22:35.834Z,32.97
2022-12-11T03:25:17.063Z,29.15
2022-12-11T03:27:57.539Z,25.98
2022-12-11T03:30:25.568Z,26.42
2022-12-11T03:32:58.824Z,28.50
2022-12-11T03:35:43.627Z,25.27
2022-12-11T03:38:17.410Z,33.67
2022-12-11T03:40:46.839Z,31.13
2022-12-11T03:43:13.822Z,28.17
2022-12-11T03:45:41.444Z,30.45
2022-12-11T03:48:09.632Z,34.97
2022-12-11T03:50:37.037Z,32.67
2022-12-11T03:53:04.406Z,29.25
2022-12-11T03:55:33.110Z,32.33
2022-12-11T03:57:59.863Z,32.47
2022-12-11T04:00:26.911Z,32.92
2022-12-11T04:03:13.906Z,34.45
2022-12-11T04:05:47.114Z,27.27
2022-12-11T04:08:14.156Z,28.73
2022-12-11T04:10:41.193Z,29.05
2022-12-11T04:13:08.907Z,34.67
2022-12-11T04:15:36.420Z,33.08
2022-12-11T04:18:22.457Z,29.08
2022-12-11T04:21:07.916Z,33.50
2022-12-11T04:23:53.224Z,35.20
2022-12-11T04:26:20.794Z,34.75
2022-12-11T04:28:48.328Z,29.67
2022-12-11T04:31:18.158Z,34.22
2022-12-11T04:33:44.945Z,31.98
2022-12-11T04:36:12.072Z,32.60
2022-12-11T04:38:39.042Z,32.13
2022-12-11T04:41:08.525Z,31.60
2022-12-11T04:43:35.710Z,37.15
2022-12-11T04:46:30.040Z,32.03
2022-12-11T04:48:57.931Z,32.97
2022-12-11T04:51:25.310Z,32.00
2022-12-11T04:53:52.347Z,34.47
2022-12-11T04:56:19.078Z,34.03
2022-12-11T04:58:46.512Z,33.10
2022-12-11T05:01:22.643Z,34.47
2022-12-11T05:03:49.511Z,40.28
2022-12-11T05:06:16.680Z,37.55
2022-12-11T05:08:45.268Z,39.75
2022-12-11T05:11:14.320Z,32.92
2022-12-11T05:13:41.284Z,37.75
2022-12-11T05:16:12.189Z,40.83
2022-12-11T05:18:39.173Z,35.42
2022-12-11T05:21:08.740Z,29.58
2022-12-11T05:23:35.861Z,31.02
2022-12-11T05:26:05.919Z,33.88
2022-12-11T05:28:35.276Z,38.80
2022-12-11T05:31:05.111Z,36.63
2022-12-11T05:33:32.135Z,35.03
2022-12-11T05:35:58.938Z,36.00
2022-12-11T05:38:25.837Z,29.10
2022-12-11T05:41:00.128Z,31.35
2022-12-11T05:43:28.283Z,29.30
2022-12-11T05:45:55.219Z,30.58
2022-12-11T05:48:22.012Z,30.95
2022-12-11T05:53:25.535Z,29.70
2022-12-11T05:55:52.305Z,24.90
2022-12-11T05:58:19.654Z,32.90
2022-12-11T06:00:47.415Z,30.63
2022-12-11T06:03:14.566Z,32.03
2022-12-11T06:05:42.251Z,30.25
2022-12-11T06:08:09.394Z,29.40
2022-12-11T06:10:36.063Z,33.38
2022-12-11T06:15:29.400Z,33.35
2022-12-11T06:17:56.228Z,27.90
2022-12-11T06:20:23.099Z,32.05
2022-12-11T06:22:49.942Z,33.70
2022-12-11T06:25:16.953Z,33.30
2022-12-11T06:27:43.601Z,32.30
2022-12-11T06:30:11.463Z,33.83
2022-12-11T06:32:38.162Z,34.25
2022-12-11T06:35:05.410Z,31.88
2022-12-11T06:37:32.096Z,32.60
2022-12-11T06:39:58.921Z,30.58
2022-12-11T06:42:25.582Z,30.25
2022-12-11T06:47:18.923Z,24.77
2022-12-11T06:49:45.819Z,26.27
2022-12-11T06:52:18.034Z,24.40
2022-12-11T06:54:45.261Z,23.50
2022-12-11T06:57:11.977Z,22.75
2022-12-11T06:59:39.014Z,24.48
2022-12-11T07:02:05.804Z,29.08
2022-12-11T07:04:33.189Z,27.50
2022-12-11T07:06:59.903Z,27.48
2022-12-11T07:09:26.689Z,19.90
2022-12-11T07:11:53.603Z,26.63
2022-12-11T07:14:20.761Z,19.83
2022-12-11T07:16:47.430Z,17.95
2022-12-11T07:19:14.441Z,21.75
2022-12-11T07:21:41.101Z,19.83
2022-12-11T07:24:08.398Z,18.80
2022-12-11T07:26:35.212Z,20.00
2022-12-11T07:29:01.960Z,19.88
2022-12-11T07:34:01.843Z,16.58
2022-12-11T07:36:29.672Z,19.15
2022-12-11T07:38:56.791Z,25.00
2022-12-11T07:41:23.754Z,22.20
2022-12-11T07:43:54.132Z,21.95
2022-12-11T07:46:24.275Z,17.40
2022-12-11T07:48:51.153Z,24.45
2022-12-11T07:51:20.106Z,25.10
2022-12-11T07:53:48.662Z,22.95
2022-12-11T07:56:16.481Z,20.77
2022-12-11T07:58:43.583Z,23.08
2022-12-11T08:01:16.223Z,25.27
2022-12-11T08:06:11.741Z,22.85
2022-12-11T08:08:39.490Z,24.27
2022-12-11T08:11:08.425Z,23.65
2022-12-11T08:13:35.931Z,21.55
2022-12-11T08:16:08.272Z,26.73
2022-12-11T08:18:36.641Z,24.73
2022-12-11T08:21:10.956Z,26.80
2022-12-11T08:23:37.898Z,30.85
2022-12-11T08:26:08.629Z,23.13
2022-12-11T08:28:35.845Z,23.63
2022-12-11T08:31:07.731Z,24.92
2022-12-11T08:33:35.006Z,23.83
2022-12-11T08:36:10.209Z,29.02
2022-12-11T08:38:37.493Z,29.83
2022-12-11T08:41:14.762Z,25.48
2022-12-11T08:43:42.308Z,25.92
2022-12-11T08:46:09.755Z,26.33
2022-12-11T08:48:37.881Z,27.60
2022-12-11T08:51:07.713Z,28.00
2022-12-11T08:53:34.995Z,27.33
2022-12-11T08:56:07.247Z,34.88
2022-12-11T08:58:34.392Z,26.02
2022-12-11T09:01:05.506Z,56.25
2022-12-11T09:03:32.307Z,34.10
2022-12-11T09:08:25.928Z,29.05
2022-12-11T09:10:52.949Z,29.10
2022-12-11T09:13:19.706Z,38.83
2022-12-11T09:18:13.098Z,23.90
2022-12-11T09:20:39.941Z,28.13
2022-12-11T09:23:06.810Z,25.50
2022-12-11T09:25:34.121Z,28.70
2022-12-11T09:28:01.684Z,24.55
2022-12-11T09:30:28.401Z,37.78
2022-12-11T09:32:55.607Z,31.77
2022-12-11T09:35:22.292Z,29.05
2022-12-11T09:37:49.572Z,27.88
2022-12-11T09:40:16.342Z,24.20
2022-12-11T09:42:46.807Z,33.08
2022-12-11T09:45:15.441Z,30.83
2022-12-11T09:47:50.180Z,25.50
2022-12-11T09:50:33.016Z,26.58
2022-12-11T09:53:13.154Z,62.30
2022-12-11T09:55:50.340Z,26.38
2022-12-11T09:58:40.904Z,24.05
2022-12-11T10:01:10.133Z,23.55
2022-12-11T10:03:52.284Z,26.13
2022-12-11T10:06:41.859Z,21.75
2022-12-11T10:09:40.335Z,42.50
2022-12-11T10:12:19.512Z,23.42
2022-12-11T10:17:42.016Z,24.52
2022-12-11T10:20:33.778Z,24.30
2022-12-11T10:25:32.975Z,28.10
2022-12-11T10:28:02.825Z,35.03
2022-12-11T10:30:37.573Z,27.23
2022-12-11T10:33:17.050Z,27.50
2022-12-11T10:35:46.875Z,32.65
2022-12-11T10:38:17.185Z,27.85
2022-12-11T10:40:47.255Z,32.25
2022-12-11T10:43:14.458Z,28.00
2022-12-11T10:45:51.034Z,29.27
2022-12-11T10:48:18.174Z,29.05
2022-12-11T10:50:57.033Z,32.00
2022-12-11T10:53:25.255Z,30.90
2022-12-11T10:55:52.801Z,29.17
2022-12-11T10:58:24.756Z,29.90
2022-12-11T11:01:16.013Z,32.20
2022-12-11T11:04:07.712Z,25.30
2022-12-11T11:06:36.482Z,27.60
2022-12-11T11:09:04.495Z,29.77
2022-12-11T11:11:38.202Z,31.75
2022-12-11T11:14:23.176Z,28.50
2022-12-11T11:16:53.304Z,29.77
2022-12-11T11:19:30.997Z,34.65
2022-12-11T11:22:01.404Z,29.98
2022-12-11T11:24:58.565Z,38.90
2022-12-11T11:27:25.652Z,28.38
2022-12-11T11:29:55.765Z,39.55
2022-12-11T11:32:23.593Z,28.95
2022-12-11T11:34:50.684Z,28.80
2022-12-11T11:37:30.959Z,32.08
2022-12-11T11:40:22.173Z,29.83
2022-12-11T11:43:06.544Z,30.38
2022-12-11T11:45:41.028Z,30.75
2022-12-11T11:48:18.095Z,30.13
2022-12-11T11:50:47.084Z,29.55
2022-12-11T11:53:20.984Z,30.27
2022-12-11T11:56:16.248Z,32.63
2022-12-11T11:59:02.674Z,27.08
2022-12-11T12:01:30.704Z,26.10
2022-12-11T12:03:58.163Z,31.17
2022-12-11T12:06:34.465Z,26.35
2022-12-11T12:09:16.728Z,24.00
2022-12-11T12:11:49.810Z,28.52
2022-12-11T12:14:51.556Z,32.53
2022-12-11T12:17:31.825Z,25.08
2022-12-11T12:20:26.795Z,29.15
2022-12-11T12:23:36.435Z,28.52
2022-12-11T12:26:18.032Z,29.75
2022-12-11T12:29:06.673Z,33.17
2022-12-11T12:32:01.464Z,30.30
2022-12-11T12:34:38.354Z,31.33
2022-12-11T12:37:13.083Z,31.35
2022-12-11T12:40:04.496Z,33.88
2022-12-11T12:42:50.201Z,31.48
2022-12-11T12:45:21.784Z,32.28
2022-12-11T12:47:53.334Z,24.48
2022-12-11T12:50:24.874Z,25.10
2022-12-11T12:52:53.434Z,25.42
2022-12-11T12:55:32.172Z,26.45
2022-12-11T12:58:05.408Z,33.25
2022-12-11T13:00:34.329Z,22.25
2022-12-11T13:03:13.675Z,24.55
2022-12-11T13:05:44.064Z,24.23
2022-12-11T13:08:13.701Z,21.73
2022-12-11T13:10:43.354Z,20.67
2022-12-11T13:13:33.004Z,21.88
2022-12-11T13:16:18.329Z,22.15
2022-12-11T13:18:48.482Z,19.70
2022-12-11T13:21:30.023Z,25.10
2022-12-11T13:24:22.194Z,23.75
2022-12-11T13:26:50.453Z,22.33
2022-12-11T13:29:36.204Z,23.27
2022-12-11T13:32:09.357Z,27.48
2022-12-11T13:34:39.527Z,35.35
2022-12-11T13:37:07.634Z,32.35
2022-12-11T13:39:36.017Z,32.28
2022-12-11T13:42:06.924Z,33.17
2022-12-11T13:44:39.199Z,31.08
2022-12-11T13:47:08.275Z,32.65
2022-12-11T13:49:37.972Z,36.78
2022-12-11T13:52:05.992Z,33.35
2022-12-11T13:54:36.531Z,38.85
2022-12-11T13:57:06.605Z,34.75
2022-12-11T13:59:39.079Z,47.88
2022-12-11T14:02:16.143Z,42.63
2022-12-11T14:04:43.544Z,38.17
2022-12-11T14:07:11.415Z,35.80
2022-12-11T14:09:43.532Z,34.08
2022-12-11T14:12:20.415Z,37.90
2022-12-11T14:14:51.906Z,39.42
2022-12-11T14:17:27.073Z,38.45
2022-12-11T14:19:55.333Z,32.75
2022-12-11T14:22:30.057Z,39.58
2022-12-11T14:25:03.915Z,40.58
2022-12-11T14:27:31.482Z,48.70
2022-12-11T14:29:58.720Z,106.43
2022-12-11T14:32:37.853Z,49.80
2022-12-11T14:35:07.235Z,34.72
2022-12-11T14:37:35.280Z,48.40
2022-12-11T14:40:04.383Z,43.38
2022-12-11T14:42:34.429Z,46.83
2022-12-11T14:45:05.885Z,36.67
2022-12-11T14:47:38.754Z,38.58
2022-12-11T14:50:10.668Z,41.28
2022-12-11T14:52:44.053Z,37.08
2022-12-11T14:55:23.365Z,42.92
2022-12-11T14:57:55.464Z,36.05
2022-12-11T15:00:26.982Z,39.40
2022-12-11T15:03:12.801Z,36.00
2022-12-11T15:05:58.735Z,38.17
2022-12-11T15:08:34.380Z,41.95
2022-12-11T15:11:10.736Z,42.15
2022-12-11T15:13:47.704Z,36.67
2022-12-11T15:16:15.896Z,45.95
2022-12-11T15:18:43.225Z,36.38
2022-12-11T15:21:12.615Z,40.85
2022-12-11T15:23:46.234Z,36.50
2022-12-11T15:26:14.978Z,36.75
2022-12-11T15:28:42.418Z,41.83
2022-12-11T15:31:28.328Z,35.30
2022-12-11T15:33:56.112Z,40.58
2022-12-11T15:36:31.116Z,35.67
2022-12-11T15:38:59.061Z,42.30
2022-12-11T15:41:26.344Z,44.35
2022-12-11T15:43:58.909Z,44.00
2022-12-11T15:48:55.927Z,35.00
2022-12-11T15:51:23.575Z,38.03
2022-12-11T15:53:50.674Z,37.53
2022-12-11T15:56:18.639Z,44.85
2022-12-11T15:58:47.114Z,38.47
2022-12-11T16:01:14.548Z,34.47
2022-12-11T16:03:41.943Z,40.22
2022-12-11T16:06:12.758Z,41.03
2022-12-11T16:08:40.291Z,33.58
2022-12-11T16:11:07.505Z,33.70
2022-12-11T16:13:34.873Z,37.60
2022-12-11T16:16:01.839Z,33.17
2022-12-11T16:18:29.011Z,33.70
2022-12-11T16:20:56.205Z,31.88
2022-12-11T16:23:24.206Z,35.00
2022-12-11T16:25:52.104Z,32.35
2022-12-11T16:28:21.384Z,34.05
2022-12-11T16:30:49.123Z,38.67
2022-12-11T16:33:16.364Z,30.65
2022-12-11T16:35:43.665Z,34.47
2022-12-11T16:38:11.953Z,35.50
2022-12-11T16:40:39.226Z,33.67
2022-12-11T16:43:06.218Z,25.58
2022-12-11T16:45:33.651Z,30.90
2022-12-11T16:48:04.039Z,25.15
2022-12-11T16:50:32.173Z,23.40
2022-12-11T16:52:58.887Z,23.33
2022-12-11T16:55:25.649Z,25.15
2022-12-11T17:00:19.840Z,18.88
2022-12-11T17:02:46.639Z,20.02
2022-12-11T17:05:14.084Z,21.75
2022-12-11T17:07:40.936Z,24.92
2022-12-11T17:10:08.432Z,26.55
2022-12-11T17:12:35.125Z,23.27
2022-12-11T17:15:02.055Z,24.02
2022-12-11T17:17:28.671Z,23.88
2022-12-11T17:19:55.797Z,30.42
2022-12-11T17:22:23.690Z,36.28
2022-12-11T17:24:50.879Z,26.67
2022-12-11T17:27:17.795Z,27.70
2022-12-11T17:29:45.084Z,28.50
2022-12-11T17:32:11.787Z,38.40
2022-12-11T17:34:38.890Z,61.47
2022-12-11T17:37:06.483Z,31.13
2022-12-11T17:39:33.557Z,32.15
2022-12-11T17:42:00.711Z,36.40
2022-12-11T17:44:30.465Z,35.63
2022-12-11T17:47:01.806Z,34.25
2022-12-11T17:51:57.202Z,39.00
2022-12-11T17:58:37.698Z,41.58
2022-12-11T18:01:09.388Z,37.85
2022-12-11T18:03:37.352Z,49.10
2022-12-11T18:06:07.083Z,48.30
2022-12-11T18:08:34.808Z,39.53
2022-12-11T18:11:16.105Z,36.40
2022-12-11T18:13:44.094Z,37.58
2022-12-11T18:16:13.611Z,35.53
2022-12-11T18:18:40.656Z,45.95
2022-12-11T18:21:07.450Z,28.13
2022-12-11T18:23:34.542Z,31.45
2022-12-11T18:26:01.206Z,27.52
2022-12-11T18:28:30.326Z,30.70
2022-12-11T18:30:59.600Z,38.40
2022-12-11T18:33:27.109Z,37.30
2022-12-11T18:35:53.766Z,47.00
2022-12-11T18:40:47.063Z,38.25
2022-12-11T18:43:13.898Z,42.90
2022-12-11T18:48:08.896Z,28.15
2022-12-11T18:50:36.081Z,29.42
2022-12-11T18:53:03.961Z,83.95
2022-12-11T18:55:30.879Z,33.63
2022-12-11T18:57:57.971Z,42.58
2022-12-11T19:00:25.145Z,42.08
2022-12-11T19:02:52.608Z,20.33
2022-12-11T19:05:19.403Z,24.58
2022-12-11T19:07:46.226Z,23.00
2022-12-11T19:10:13.425Z,21.92
2022-12-11T19:12:40.471Z,21.45
2022-12-11T19:15:07.585Z,20.52
2022-12-11T19:17:34.327Z,22.13
2022-12-11T19:20:13.607Z,27.00
2022-12-11T19:28:01.930Z,25.95
2022-12-11T19:30:28.790Z,18.30
2022-12-11T19:32:55.491Z,23.40
2022-12-11T19:35:22.273Z,24.27
2022-12-11T19:37:48.921Z,30.08
2022-12-11T19:40:16.119Z,21.95
2022-12-11T19:42:42.811Z,21.15
2022-12-11T19:45:10.811Z,14.48
2022-12-11T19:47:37.698Z,14.60
2022-12-11T19:50:05.038Z,12.82
2022-12-11T19:52:31.836Z,16.85
2022-12-11T19:55:06.541Z,18.55
2022-12-11T19:57:33.822Z,17.05
2022-12-11T20:00:01.212Z,15.43
2022-12-11T20:02:28.150Z,18.85
2022-12-11T20:04:55.050Z,15.73
2022-12-11T20:07:26.128Z,21.50
2022-12-11T20:09:57.171Z,17.60
2022-12-11T20:12:24.504Z,16.95
2022-12-11T20:14:51.675Z,16.98
2022-12-11T20:17:18.379Z,20.10
2022-12-11T20:19:45.405Z,19.83
2022-12-11T20:22:12.254Z,17.70
2022-12-11T20:24:39.382Z,20.40
2022-12-11T20:27:06.089Z,17.95
2022-12-11T20:29:33.197Z,24.95
2022-12-11T20:32:00.479Z,28.33
2022-12-11T20:34:28.108Z,21.70
2022-12-11T20:36:55.619Z,25.98
2022-12-11T20:39:22.669Z,24.52
2022-12-11T20:41:50.762Z,59.67
2022-12-11T20:44:17.616Z,23.30
2022-12-11T20:46:44.525Z,30.70
2022-12-11T20:49:13.192Z,25.98
2022-12-11T20:51:44.066Z,57.42
2022-12-11T20:54:11.026Z,22.73
2022-12-11T20:56:37.908Z,23.38
2022-12-11T20:59:04.873Z,23.90
2022-12-11T21:01:33.067Z,22.88
2022-12-11T21:04:00.495Z,31.73
2022-12-11T21:06:31.227Z,30.70
2022-12-11T21:09:25.124Z,35.75
2022-12-11T21:11:52.389Z,26.30
2022-12-11T21:14:20.092Z,25.52
2022-12-11T21:16:47.132Z,27.42
2022-12-11T21:19:17.109Z,37.67
2022-12-11T21:21:45.237Z,38.42
2022-12-11T21:28:24.313Z,22.55
2022-12-11T21:30:51.288Z,27.92
2022-12-11T21:33:17.997Z,31.80
2022-12-11T21:35:44.857Z,28.45
2022-12-11T21:38:11.514Z,24.77
2022-12-11T21:43:04.734Z,23.02
2022-12-11T21:48:21.363Z,25.88
2022-12-11T21:50:48.051Z,26.98
2022-12-11T21:53:14.832Z,26.75
2022-12-11T21:58:09.529Z,22.15
2022-12-11T22:00:38.125Z,25.42
2022-12-11T22:03:06.082Z,29.65
2022-12-11T22:05:32.970Z,23.52
2022-12-11T22:07:59.846Z,23.35
2022-12-11T22:10:28.078Z,27.13
2022-12-11T22:17:26.475Z,22.80
2022-12-11T22:19:53.701Z,24.52
2022-12-11T22:22:20.501Z,25.67
2022-12-11T22:24:47.411Z,26.80
2022-12-11T22:27:15.900Z,29.55
2022-12-11T22:29:45.977Z,24.08
2022-12-11T22:32:12.718Z,19.58
2022-12-11T22:34:40.485Z,23.15
2022-12-11T22:37:07.131Z,24.80
2022-12-11T22:39:33.830Z,22.45
2022-12-11T22:44:27.357Z,23.83
2022-12-11T22:46:54.010Z,27.33
2022-12-11T22:49:20.847Z,25.13
2022-12-11T22:51:48.021Z,28.17
2022-12-11T22:54:14.781Z,25.77
2022-12-11T22:56:41.928Z,25.40
2022-12-11T22:59:08.645Z,22.85
2022-12-11T23:01:35.313Z,23.00
2022-12-11T23:04:02.086Z,24.25
2022-12-11T23:08:58.661Z,25.27
2022-12-11T23:11:28.716Z,21.33
2022-12-11T23:13:56.009Z,21.85
2022-12-11T23:16:24.197Z,23.73
2022-12-11T23:18:51.082Z,27.05
2022-12-11T23:21:17.935Z,25.08
2022-12-11T23:23:44.591Z,24.70
2022-12-11T23:26:13.113Z,26.15
2022-12-11T23:28:40.115Z,24.42
2022-12-11T23:31:07.122Z,26.27
2022-12-11T23:33:33.799Z,30.05
2022-12-11T23:38:27.316Z,24.73
2022-12-11T23:40:54.047Z,24.52
2022-12-11T23:45:47.388Z,20.50
2022-12-11T23:48:14.308Z,21.58
2022-12-11T23:50:42.656Z,22.75
2022-12-11T23:53:09.522Z,22.50
2022-12-11T23:55:39.253Z,24.13
2022-12-11T23:58:06.334Z,22.83
